sensor_id;sensor_type;location;lat;lon;timestamp;P1;durP1;ratioP1;P2;durP2;ratioP2
47796;SDS011;33558;50.922;14.068;2022-10-16T00:01:22;41.33;;;25.40;;
47796;SDS011;33558;50.922;14.068;2022-10-16T00:03:51;33.60;;;22.20;;
47796;SDS011;33558;50.922;14.068;2022-10-16T00:06:19;30.43;;;21.80;;
47796;SDS011;33558;50.922;14.068;2022-10-16T00:08:47;30.27;;;22.50;;
47796;SDS011;33558;50.922;14.068;2022-10-16T00:11:15;28.50;;;21.30;;
47796;SDS011;33558;50.922;14.068;2022-10-16T00:13:43;26.77;;;20.63;;
47796;SDS011;33558;50.922;14.068;2022-10-16T00:16:11;35.10;;;22.83;;
47796;SDS011;33558;50.922;14.068;2022-10-16T00:18:38;28.40;;;20.53;;
47796;SDS011;33558;50.922;14.068;2022-10-16T00:21:07;30.00;;;20.90;;
47796;SDS011;33558;50.922;14.068;2022-10-16T00:23:35;30.80;;;20.73;;
47796;SDS011;33558;50.922;14.068;2022-10-16T00:26:02;38.63;;;23.67;;
47796;SDS011;33558;50.922;14.068;2022-10-16T00:28:31;32.70;;;21.70;;
47796;SDS011;33558;50.922;14.068;2022-10-16T00:30:58;29.83;;;21.13;;
47796;SDS011;33558;50.922;14.068;2022-10-16T00:33:24;45.10;;;25.07;;
47796;SDS011;33558;50.922;14.068;2022-10-16T00:35:51;32.10;;;23.70;;
47796;SDS011;33558;50.922;14.068;2022-10-16T00:38:19;31.13;;;21.50;;
47796;SDS011;33558;50.922;14.068;2022-10-16T00:40:46;46.03;;;26.93;;
47796;SDS011;33558;50.922;14.068;2022-10-16T00:43:14;40.90;;;24.87;;
47796;SDS011;33558;50.922;14.068;2022-10-16T00:46:00;31.20;;;22.60;;
47796;SDS011;33558;50.922;14.068;2022-10-16T00:48:27;30.97;;;21.83;;
47796;SDS011;33558;50.922;14.068;2022-10-16T00:50:55;31.43;;;22.47;;
47796;SDS011;33558;50.922;14.068;2022-10-16T00:53:24;42.23;;;26.37;;
47796;SDS011;33558;50.922;14.068;2022-10-16T00:55:51;36.83;;;22.20;;
47796;SDS011;33558;50.922;14.068;2022-10-16T00:58:19;27.70;;;21.20;;
47796;SDS011;33558;50.922;14.068;2022-10-16T01:03:23;31.80;;;22.23;;
47796;SDS011;33558;50.922;14.068;2022-10-16T01:05:54;29.70;;;20.65;;
47796;SDS011;33558;50.922;14.068;2022-10-16T01:08:27;29.00;;;21.33;;
47796;SDS011;33558;50.922;14.068;2022-10-16T01:11:01;31.03;;;20.17;;
47796;SDS011;33558;50.922;14.068;2022-10-16T01:13:32;29.00;;;20.67;;
47796;SDS011;33558;50.922;14.068;2022-10-16T01:16:04;31.47;;;21.73;;
47796;SDS011;33558;50.922;14.068;2022-10-16T01:18:34;26.73;;;19.50;;
47796;SDS011;33558;50.922;14.068;2022-10-16T01:21:06;28.93;;;20.67;;
47796;SDS011;33558;50.922;14.068;2022-10-16T01:23:38;74.13;;;24.40;;
47796;SDS011;33558;50.922;14.068;2022-10-16T01:29:03;31.60;;;22.13;;
47796;SDS011;33558;50.922;14.068;2022-10-16T01:31:35;33.73;;;22.47;;
47796;SDS011;33558;50.922;14.068;2022-10-16T01:34:03;39.73;;;24.23;;
47796;SDS011;33558;50.922;14.068;2022-10-16T01:36:34;33.90;;;21.53;;
47796;SDS011;33558;50.922;14.068;2022-10-16T01:39:04;34.00;;;22.30;;
47796;SDS011;33558;50.922;14.068;2022-10-16T01:41:34;32.07;;;21.40;;
47796;SDS011;33558;50.922;14.068;2022-10-16T01:44:06;39.50;;;24.77;;
47796;SDS011;33558;50.922;14.068;2022-10-16T01:46:36;41.17;;;25.47;;
47796;SDS011;33558;50.922;14.068;2022-10-16T01:49:04;30.37;;;22.60;;
47796;SDS011;33558;50.922;14.068;2022-10-16T01:51:32;45.50;;;25.83;;
47796;SDS011;33558;50.922;14.068;2022-10-16T01:53:59;35.30;;;22.87;;
47796;SDS011;33558;50.922;14.068;2022-10-16T01:56:27;32.43;;;21.53;;
47796;SDS011;33558;50.922;14.068;2022-10-16T01:58:55;33.60;;;22.80;;
47796;SDS011;33558;50.922;14.068;2022-10-16T02:01:26;34.13;;;21.97;;
47796;SDS011;33558;50.922;14.068;2022-10-16T02:03:55;32.40;;;22.40;;
47796;SDS011;33558;50.922;14.068;2022-10-16T02:06:23;30.47;;;21.63;;
47796;SDS011;33558;50.922;14.068;2022-10-16T02:08:50;29.13;;;21.07;;
47796;SDS011;33558;50.922;14.068;2022-10-16T02:11:17;36.47;;;23.77;;
47796;SDS011;33558;50.922;14.068;2022-10-16T02:13:45;31.30;;;22.10;;
47796;SDS011;33558;50.922;14.068;2022-10-16T02:16:14;30.73;;;22.77;;
47796;SDS011;33558;50.922;14.068;2022-10-16T02:18:42;32.50;;;21.90;;
47796;SDS011;33558;50.922;14.068;2022-10-16T02:21:11;34.07;;;22.37;;
47796;SDS011;33558;50.922;14.068;2022-10-16T02:23:42;31.50;;;22.30;;
47796;SDS011;33558;50.922;14.068;2022-10-16T02:26:13;31.03;;;22.20;;
47796;SDS011;33558;50.922;14.068;2022-10-16T02:28:42;29.07;;;21.83;;
47796;SDS011;33558;50.922;14.068;2022-10-16T02:31:12;28.60;;;20.60;;
47796;SDS011;33558;50.922;14.068;2022-10-16T02:33:44;29.97;;;21.37;;
47796;SDS011;33558;50.922;14.068;2022-10-16T02:36:12;29.40;;;20.20;;
47796;SDS011;33558;50.922;14.068;2022-10-16T02:38:39;27.73;;;20.80;;
47796;SDS011;33558;50.922;14.068;2022-10-16T02:41:06;31.07;;;20.27;;
47796;SDS011;33558;50.922;14.068;2022-10-16T02:43:33;32.80;;;20.37;;
47796;SDS011;33558;50.922;14.068;2022-10-16T02:46:00;29.67;;;22.00;;
47796;SDS011;33558;50.922;14.068;2022-10-16T02:48:26;25.65;;;20.35;;
47796;SDS011;33558;50.922;14.068;2022-10-16T02:50:54;27.53;;;20.27;;
47796;SDS011;33558;50.922;14.068;2022-10-16T02:53:22;26.52;;;21.48;;
47796;SDS011;33558;50.922;14.068;2022-10-16T02:55:49;25.77;;;19.60;;
47796;SDS011;33558;50.922;14.068;2022-10-16T02:58:16;27.03;;;19.57;;
47796;SDS011;33558;50.922;14.068;2022-10-16T03:00:43;26.17;;;19.30;;
47796;SDS011;33558;50.922;14.068;2022-10-16T03:03:10;26.47;;;19.73;;
47796;SDS011;33558;50.922;14.068;2022-10-16T03:05:37;24.67;;;18.73;;
47796;SDS011;33558;50.922;14.068;2022-10-16T03:08:05;26.47;;;19.40;;
47796;SDS011;33558;50.922;14.068;2022-10-16T03:10:32;21.83;;;18.23;;
47796;SDS011;33558;50.922;14.068;2022-10-16T03:12:59;22.10;;;17.60;;
47796;SDS011;33558;50.922;14.068;2022-10-16T03:15:25;26.47;;;18.17;;
47796;SDS011;33558;50.922;14.068;2022-10-16T03:17:53;24.33;;;18.00;;
47796;SDS011;33558;50.922;14.068;2022-10-16T03:20:20;22.53;;;17.43;;
47796;SDS011;33558;50.922;14.068;2022-10-16T03:22:46;20.03;;;17.30;;
47796;SDS011;33558;50.922;14.068;2022-10-16T03:25:14;19.47;;;15.97;;
47796;SDS011;33558;50.922;14.068;2022-10-16T03:27:41;22.07;;;16.33;;
47796;SDS011;33558;50.922;14.068;2022-10-16T03:30:09;19.83;;;16.47;;
47796;SDS011;33558;50.922;14.068;2022-10-16T03:32:36;22.93;;;15.83;;
47796;SDS011;33558;50.922;14.068;2022-10-16T03:35:03;22.47;;;16.93;;
47796;SDS011;33558;50.922;14.068;2022-10-16T03:37:30;20.27;;;16.63;;
47796;SDS011;33558;50.922;14.068;2022-10-16T03:39:57;23.40;;;17.27;;
47796;SDS011;33558;50.922;14.068;2022-10-16T03:42:25;23.33;;;17.30;;
47796;SDS011;33558;50.922;14.068;2022-10-16T03:44:52;23.63;;;17.57;;
47796;SDS011;33558;50.922;14.068;2022-10-16T03:47:19;29.37;;;18.87;;
47796;SDS011;33558;50.922;14.068;2022-10-16T03:49:48;22.90;;;17.57;;
47796;SDS011;33558;50.922;14.068;2022-10-16T03:52:15;22.73;;;17.67;;
47796;SDS011;33558;50.922;14.068;2022-10-16T03:54:42;21.87;;;17.97;;
47796;SDS011;33558;50.922;14.068;2022-10-16T03:57:08;26.10;;;17.87;;
47796;SDS011;33558;50.922;14.068;2022-10-16T03:59:37;21.20;;;16.67;;
47796;SDS011;33558;50.922;14.068;2022-10-16T04:02:03;21.57;;;16.67;;
47796;SDS011;33558;50.922;14.068;2022-10-16T04:04:30;25.83;;;18.25;;
47796;SDS011;33558;50.922;14.068;2022-10-16T04:06:57;20.40;;;15.70;;
47796;SDS011;33558;50.922;14.068;2022-10-16T04:09:23;22.20;;;16.40;;
47796;SDS011;33558;50.922;14.068;2022-10-16T04:11:50;20.13;;;15.90;;
47796;SDS011;33558;50.922;14.068;2022-10-16T04:14:17;24.93;;;16.73;;
47796;SDS011;33558;50.922;14.068;2022-10-16T04:16:45;21.17;;;17.00;;
47796;SDS011;33558;50.922;14.068;2022-10-16T04:19:12;23.00;;;16.97;;
47796;SDS011;33558;50.922;14.068;2022-10-16T06:42:41;26.80;;;19.13;;
47796;SDS011;33558;50.922;14.068;2022-10-16T08:23:18;16.13;;;14.52;;
47796;SDS011;33558;50.922;14.068;2022-10-16T08:25:52;16.42;;;14.93;;
47796;SDS011;33558;50.922;14.068;2022-10-16T08:28:37;16.58;;;14.52;;
47796;SDS011;33558;50.922;14.068;2022-10-16T08:31:08;15.60;;;14.10;;
47796;SDS011;33558;50.922;14.068;2022-10-16T08:33:40;15.43;;;13.95;;
47796;SDS011;33558;50.922;14.068;2022-10-16T08:36:16;14.30;;;12.88;;
47796;SDS011;33558;50.922;14.068;2022-10-16T08:39:00;13.10;;;11.50;;
47796;SDS011;33558;50.922;14.068;2022-10-16T08:41:36;12.80;;;11.10;;
47796;SDS011;33558;50.922;14.068;2022-10-16T08:44:59;10.30;;;9.30;;
47796;SDS011;33558;50.922;14.068;2022-10-16T08:47:48;9.82;;;8.88;;
47796;SDS011;33558;50.922;14.068;2022-10-16T08:50:19;9.27;;;8.38;;
47796;SDS011;33558;50.922;14.068;2022-10-16T08:52:50;11.32;;;9.55;;
47796;SDS011;33558;50.922;14.068;2022-10-16T08:58:19;8.38;;;7.55;;
47796;SDS011;33558;50.922;14.068;2022-10-16T09:00:53;8.45;;;7.60;;
47796;SDS011;33558;50.922;14.068;2022-10-16T09:03:23;7.35;;;6.65;;
47796;SDS011;33558;50.922;14.068;2022-10-16T09:06:06;6.55;;;5.95;;
47796;SDS011;33558;50.922;14.068;2022-10-16T09:08:42;6.57;;;6.00;;
47796;SDS011;33558;50.922;14.068;2022-10-16T09:11:21;6.55;;;5.95;;
47796;SDS011;33558;50.922;14.068;2022-10-16T09:13:55;6.57;;;5.80;;
47796;SDS011;33558;50.922;14.068;2022-10-16T09:16:32;7.20;;;5.63;;
47796;SDS011;33558;50.922;14.068;2022-10-16T09:19:09;6.07;;;5.57;;
47796;SDS011;33558;50.922;14.068;2022-10-16T09:21:43;6.68;;;5.53;;
47796;SDS011;33558;50.922;14.068;2022-10-16T09:24:13;8.13;;;5.90;;
47796;SDS011;33558;50.922;14.068;2022-10-16T09:26:57;6.88;;;5.25;;
47796;SDS011;33558;50.922;14.068;2022-10-16T09:29:50;5.90;;;5.07;;
47796;SDS011;33558;50.922;14.068;2022-10-16T09:32:19;6.15;;;5.43;;
47796;SDS011;33558;50.922;14.068;2022-10-16T09:34:52;5.38;;;4.88;;
47796;SDS011;33558;50.922;14.068;2022-10-16T09:37:34;5.53;;;5.03;;
47796;SDS011;33558;50.922;14.068;2022-10-16T09:40:24;5.22;;;4.82;;
47796;SDS011;33558;50.922;14.068;2022-10-16T09:45:54;7.97;;;5.03;;
47796;SDS011;33558;50.922;14.068;2022-10-16T09:48:25;6.95;;;4.47;;
47796;SDS011;33558;50.922;14.068;2022-10-16T09:51:04;5.30;;;4.57;;
47796;SDS011;33558;50.922;14.068;2022-10-16T09:53:44;5.55;;;4.38;;
47796;SDS011;33558;50.922;14.068;2022-10-16T09:56:26;5.25;;;4.32;;
47796;SDS011;33558;50.922;14.068;2022-10-16T09:59:08;6.75;;;4.85;;
47796;SDS011;33558;50.922;14.068;2022-10-16T10:01:40;5.97;;;4.60;;
47796;SDS011;33558;50.922;14.068;2022-10-16T10:04:13;4.68;;;4.03;;
47796;SDS011;33558;50.922;14.068;2022-10-16T10:07:01;4.20;;;3.67;;
47796;SDS011;33558;50.922;14.068;2022-10-16T10:09:42;3.67;;;3.38;;
47796;SDS011;33558;50.922;14.068;2022-10-16T10:12:19;4.25;;;3.85;;
47796;SDS011;33558;50.922;14.068;2022-10-16T10:14:55;4.07;;;3.22;;
47796;SDS011;33558;50.922;14.068;2022-10-16T10:17:25;4.28;;;3.67;;
47796;SDS011;33558;50.922;14.068;2022-10-16T10:20:15;6.25;;;3.70;;
47796;SDS011;33558;50.922;14.068;2022-10-16T10:23:15;3.63;;;3.33;;
47796;SDS011;33558;50.922;14.068;2022-10-16T10:25:49;4.78;;;3.83;;
47796;SDS011;33558;50.922;14.068;2022-10-16T10:28:29;4.40;;;3.67;;
47796;SDS011;33558;50.922;14.068;2022-10-16T10:31:08;4.30;;;3.03;;
47796;SDS011;33558;50.922;14.068;2022-10-16T10:33:43;5.95;;;3.40;;
47796;SDS011;33558;50.922;14.068;2022-10-16T10:36:27;4.15;;;3.05;;
47796;SDS011;33558;50.922;14.068;2022-10-16T10:38:58;3.90;;;3.08;;
47796;SDS011;33558;50.922;14.068;2022-10-16T10:44:26;4.82;;;2.80;;
47796;SDS011;33558;50.922;14.068;2022-10-16T10:47:15;4.80;;;3.15;;
47796;SDS011;33558;50.922;14.068;2022-10-16T10:49:53;4.80;;;2.75;;
47796;SDS011;33558;50.922;14.068;2022-10-16T10:52:34;5.47;;;2.72;;
47796;SDS011;33558;50.922;14.068;2022-10-16T10:55:21;2.65;;;2.33;;
47796;SDS011;33558;50.922;14.068;2022-10-16T10:58:10;3.15;;;2.40;;
47796;SDS011;33558;50.922;14.068;2022-10-16T11:01:08;6.22;;;2.65;;
47796;SDS011;33558;50.922;14.068;2022-10-16T11:06:39;2.78;;;2.50;;
47796;SDS011;33558;50.922;14.068;2022-10-16T11:09:09;3.35;;;2.70;;
47796;SDS011;33558;50.922;14.068;2022-10-16T11:11:41;3.67;;;2.75;;
47796;SDS011;33558;50.922;14.068;2022-10-16T11:14:20;2.60;;;2.40;;
47796;SDS011;33558;50.922;14.068;2022-10-16T11:16:52;3.05;;;2.60;;
47796;SDS011;33558;50.922;14.068;2022-10-16T11:19:26;3.08;;;2.72;;
47796;SDS011;33558;50.922;14.068;2022-10-16T11:22:00;3.28;;;2.90;;
47796;SDS011;33558;50.922;14.068;2022-10-16T11:24:40;3.53;;;2.50;;
47796;SDS011;33558;50.922;14.068;2022-10-16T11:27:12;3.35;;;2.58;;
47796;SDS011;33558;50.922;14.068;2022-10-16T11:29:47;4.50;;;2.40;;
47796;SDS011;33558;50.922;14.068;2022-10-16T11:32:29;3.42;;;2.70;;
47796;SDS011;33558;50.922;14.068;2022-10-16T11:35:11;5.90;;;3.00;;
47796;SDS011;33558;50.922;14.068;2022-10-16T11:38:14;4.28;;;3.15;;
47796;SDS011;33558;50.922;14.068;2022-10-16T11:40:56;4.15;;;2.70;;
47796;SDS011;33558;50.922;14.068;2022-10-16T11:43:31;5.82;;;2.83;;
47796;SDS011;33558;50.922;14.068;2022-10-16T11:46:02;3.40;;;3.10;;
47796;SDS011;33558;50.922;14.068;2022-10-16T11:48:32;4.15;;;2.63;;
47796;SDS011;33558;50.922;14.068;2022-10-16T11:51:21;5.10;;;2.75;;
47796;SDS011;33558;50.922;14.068;2022-10-16T11:53:53;5.05;;;3.05;;
47796;SDS011;33558;50.922;14.068;2022-10-16T11:56:30;4.28;;;2.58;;
47796;SDS011;33558;50.922;14.068;2022-10-16T11:59:19;4.72;;;3.20;;
47796;SDS011;33558;50.922;14.068;2022-10-16T12:01:56;7.68;;;3.28;;
47796;SDS011;33558;50.922;14.068;2022-10-16T12:04:33;4.50;;;3.00;;
47796;SDS011;33558;50.922;14.068;2022-10-16T12:07:17;5.25;;;2.70;;
47796;SDS011;33558;50.922;14.068;2022-10-16T12:09:56;3.85;;;3.13;;
47796;SDS011;33558;50.922;14.068;2022-10-16T12:12:26;3.03;;;2.70;;
47796;SDS011;33558;50.922;14.068;2022-10-16T12:15:00;3.33;;;2.72;;
47796;SDS011;33558;50.922;14.068;2022-10-16T12:17:34;3.40;;;3.10;;
47796;SDS011;33558;50.922;14.068;2022-10-16T12:20:25;5.05;;;3.17;;
47796;SDS011;33558;50.922;14.068;2022-10-16T12:23:01;5.47;;;2.88;;
47796;SDS011;33558;50.922;14.068;2022-10-16T12:25:37;2.90;;;2.10;;
47796;SDS011;33558;50.922;14.068;2022-10-16T12:30:53;6.80;;;2.97;;
47796;SDS011;33558;50.922;14.068;2022-10-16T12:33:25;3.00;;;2.50;;
47796;SDS011;33558;50.922;14.068;2022-10-16T12:35:59;5.45;;;2.70;;
47796;SDS011;33558;50.922;14.068;2022-10-16T12:38:37;3.80;;;2.40;;
47796;SDS011;33558;50.922;14.068;2022-10-16T12:41:12;3.13;;;2.60;;
47796;SDS011;33558;50.922;14.068;2022-10-16T12:43:51;8.30;;;3.03;;
47796;SDS011;33558;50.922;14.068;2022-10-16T12:46:22;5.80;;;2.80;;
47796;SDS011;33558;50.922;14.068;2022-10-16T12:49:06;3.95;;;2.90;;
47796;SDS011;33558;50.922;14.068;2022-10-16T12:51:50;3.25;;;2.92;;
47796;SDS011;33558;50.922;14.068;2022-10-16T12:57:29;7.93;;;3.00;;
47796;SDS011;33558;50.922;14.068;2022-10-16T13:00:12;3.78;;;2.83;;
47796;SDS011;33558;50.922;14.068;2022-10-16T13:03:09;5.78;;;3.00;;
47796;SDS011;33558;50.922;14.068;2022-10-16T13:05:56;3.92;;;2.72;;
47796;SDS011;33558;50.922;14.068;2022-10-16T13:08:38;3.42;;;2.85;;
47796;SDS011;33558;50.922;14.068;2022-10-16T13:11:43;6.95;;;3.20;;
47796;SDS011;33558;50.922;14.068;2022-10-16T13:14:45;8.80;;;3.40;;
47796;SDS011;33558;50.922;14.068;2022-10-16T13:17:24;3.60;;;2.93;;
47796;SDS011;33558;50.922;14.068;2022-10-16T13:19:59;6.43;;;3.90;;
47796;SDS011;33558;50.922;14.068;2022-10-16T13:22:36;5.47;;;4.03;;
47796;SDS011;33558;50.922;14.068;2022-10-16T13:25:13;9.82;;;4.20;;
47796;SDS011;33558;50.922;14.068;2022-10-16T13:27:52;6.82;;;3.55;;
47796;SDS011;33558;50.922;14.068;2022-10-16T13:30:24;4.82;;;3.67;;
47796;SDS011;33558;50.922;14.068;2022-10-16T13:32:55;6.25;;;3.80;;
47796;SDS011;33558;50.922;14.068;2022-10-16T13:35:28;7.30;;;3.50;;
47796;SDS011;33558;50.922;14.068;2022-10-16T13:40:53;4.57;;;3.40;;
47796;SDS011;33558;50.922;14.068;2022-10-16T13:43:25;5.13;;;3.25;;
47796;SDS011;33558;50.922;14.068;2022-10-16T13:45:57;7.65;;;5.03;;
47796;SDS011;33558;50.922;14.068;2022-10-16T13:48:27;7.65;;;4.80;;
47796;SDS011;33558;50.922;14.068;2022-10-16T13:50:58;5.40;;;4.80;;
47796;SDS011;33558;50.922;14.068;2022-10-16T13:53:30;6.18;;;4.10;;
47796;SDS011;33558;50.922;14.068;2022-10-16T13:55:59;6.93;;;4.45;;
47796;SDS011;33558;50.922;14.068;2022-10-16T13:58:34;5.90;;;4.03;;
47796;SDS011;33558;50.922;14.068;2022-10-16T14:01:04;5.43;;;3.85;;
47796;SDS011;33558;50.922;14.068;2022-10-16T14:03:43;5.65;;;3.72;;
47796;SDS011;33558;50.922;14.068;2022-10-16T14:06:14;6.63;;;3.20;;
47796;SDS011;33558;50.922;14.068;2022-10-16T14:08:48;7.93;;;4.00;;
47796;SDS011;33558;50.922;14.068;2022-10-16T14:11:20;4.00;;;2.60;;
47796;SDS011;33558;50.922;14.068;2022-10-16T14:13:51;4.07;;;2.50;;
47796;SDS011;33558;50.922;14.068;2022-10-16T14:17:00;4.05;;;1.92;;
47796;SDS011;33558;50.922;14.068;2022-10-16T14:19:32;4.65;;;1.90;;
47796;SDS011;33558;50.922;14.068;2022-10-16T14:22:00;4.82;;;1.90;;
47796;SDS011;33558;50.922;14.068;2022-10-16T14:24:31;1.73;;;1.42;;
47796;SDS011;33558;50.922;14.068;2022-10-16T14:27:01;5.88;;;3.90;;
47796;SDS011;33558;50.922;14.068;2022-10-16T14:29:47;11.55;;;4.32;;
47796;SDS011;33558;50.922;14.068;2022-10-16T14:32:20;13.23;;;8.60;;
47796;SDS011;33558;50.922;14.068;2022-10-16T14:34:53;11.65;;;7.45;;
47796;SDS011;33558;50.922;14.068;2022-10-16T14:37:23;10.07;;;5.57;;
47796;SDS011;33558;50.922;14.068;2022-10-16T14:39:54;5.72;;;3.00;;
47796;SDS011;33558;50.922;14.068;2022-10-16T14:42:25;3.70;;;2.35;;
47796;SDS011;33558;50.922;14.068;2022-10-16T14:44:57;7.05;;;3.85;;
47796;SDS011;33558;50.922;14.068;2022-10-16T14:47:28;5.88;;;3.20;;
47796;SDS011;33558;50.922;14.068;2022-10-16T14:49:58;6.25;;;3.42;;
47796;SDS011;33558;50.922;14.068;2022-10-16T14:52:26;25.02;;;18.70;;
47796;SDS011;33558;50.922;14.068;2022-10-16T14:54:55;13.50;;;10.20;;
47796;SDS011;33558;50.922;14.068;2022-10-16T14:57:26;4.13;;;3.10;;
47796;SDS011;33558;50.922;14.068;2022-10-16T14:59:54;7.05;;;4.38;;
47796;SDS011;33558;50.922;14.068;2022-10-16T15:02:25;8.38;;;6.22;;
47796;SDS011;33558;50.922;14.068;2022-10-16T15:04:54;6.00;;;3.70;;
47796;SDS011;33558;50.922;14.068;2022-10-16T15:07:22;9.32;;;4.80;;
47796;SDS011;33558;50.922;14.068;2022-10-16T15:09:49;10.38;;;5.25;;
47796;SDS011;33558;50.922;14.068;2022-10-16T15:12:16;8.15;;;3.65;;
47796;SDS011;33558;50.922;14.068;2022-10-16T15:20:09;9.60;;;3.80;;
47796;SDS011;33558;50.922;14.068;2022-10-16T15:39:21;8.05;;;5.15;;
47796;SDS011;33558;50.922;14.068;2022-10-16T15:41:49;13.20;;;5.53;;
47796;SDS011;33558;50.922;14.068;2022-10-16T15:44:20;11.82;;;6.28;;
47796;SDS011;33558;50.922;14.068;2022-10-16T15:46:48;11.45;;;6.05;;
47796;SDS011;33558;50.922;14.068;2022-10-16T15:49:15;10.20;;;6.57;;
47796;SDS011;33558;50.922;14.068;2022-10-16T15:51:44;11.25;;;6.57;;
47796;SDS011;33558;50.922;14.068;2022-10-16T15:54:13;10.27;;;5.88;;
47796;SDS011;33558;50.922;14.068;2022-10-16T15:56:42;13.43;;;6.93;;
47796;SDS011;33558;50.922;14.068;2022-10-16T15:59:11;9.43;;;6.88;;
47796;SDS011;33558;50.922;14.068;2022-10-16T16:01:39;9.25;;;6.15;;
47796;SDS011;33558;50.922;14.068;2022-10-16T16:04:09;8.55;;;6.05;;
47796;SDS011;33558;50.922;14.068;2022-10-16T16:06:37;7.45;;;6.05;;
47796;SDS011;33558;50.922;14.068;2022-10-16T16:09:10;10.85;;;6.18;;
47796;SDS011;33558;50.922;14.068;2022-10-16T16:11:38;8.52;;;6.45;;
47796;SDS011;33558;50.922;14.068;2022-10-16T16:14:07;10.05;;;7.82;;
47796;SDS011;33558;50.922;14.068;2022-10-16T16:16:35;8.05;;;5.97;;
47796;SDS011;33558;50.922;14.068;2022-10-16T16:19:03;7.15;;;5.88;;
47796;SDS011;33558;50.922;14.068;2022-10-16T16:21:31;10.80;;;6.18;;
47796;SDS011;33558;50.922;14.068;2022-10-16T16:23:58;8.65;;;6.35;;
47796;SDS011;33558;50.922;14.068;2022-10-16T16:26:26;11.00;;;6.30;;
47796;SDS011;33558;50.922;14.068;2022-10-16T16:28:56;7.38;;;6.25;;
47796;SDS011;33558;50.922;14.068;2022-10-16T16:31:24;11.07;;;6.22;;
47796;SDS011;33558;50.922;14.068;2022-10-16T16:33:52;7.18;;;5.15;;
47796;SDS011;33558;50.922;14.068;2022-10-16T16:36:19;8.25;;;5.05;;
47796;SDS011;33558;50.922;14.068;2022-10-16T16:38:46;6.90;;;4.97;;
47796;SDS011;33558;50.922;14.068;2022-10-16T16:41:13;8.65;;;4.68;;
47796;SDS011;33558;50.922;14.068;2022-10-16T16:43:40;7.55;;;4.97;;
47796;SDS011;33558;50.922;14.068;2022-10-16T16:46:07;7.05;;;5.55;;
47796;SDS011;33558;50.922;14.068;2022-10-16T16:48:35;8.02;;;5.50;;
47796;SDS011;33558;50.922;14.068;2022-10-16T16:51:03;14.48;;;10.43;;
47796;SDS011;33558;50.922;14.068;2022-10-16T16:53:30;114.70;;;10.65;;
47796;SDS011;33558;50.922;14.068;2022-10-16T16:56:00;10.07;;;8.98;;
47796;SDS011;33558;50.922;14.068;2022-10-16T16:58:27;10.38;;;8.38;;
47796;SDS011;33558;50.922;14.068;2022-10-16T17:00:54;8.85;;;7.43;;
47796;SDS011;33558;50.922;14.068;2022-10-16T17:03:21;9.98;;;8.00;;
47796;SDS011;33558;50.922;14.068;2022-10-16T17:05:55;9.63;;;8.23;;
47796;SDS011;33558;50.922;14.068;2022-10-16T17:08:23;10.90;;;8.20;;
47796;SDS011;33558;50.922;14.068;2022-10-16T17:10:50;11.75;;;7.65;;
47796;SDS011;33558;50.922;14.068;2022-10-16T17:13:20;10.15;;;8.75;;
47796;SDS011;33558;50.922;14.068;2022-10-16T17:15:48;14.18;;;10.10;;
47796;SDS011;33558;50.922;14.068;2022-10-16T17:18:16;14.88;;;9.52;;
47796;SDS011;33558;50.922;14.068;2022-10-16T17:20:43;10.30;;;8.90;;
47796;SDS011;33558;50.922;14.068;2022-10-16T17:23:11;11.90;;;8.25;;
47796;SDS011;33558;50.922;14.068;2022-10-16T17:25:39;9.05;;;8.15;;
47796;SDS011;33558;50.922;14.068;2022-10-16T17:28:06;10.98;;;9.25;;
47796;SDS011;33558;50.922;14.068;2022-10-16T17:30:36;19.10;;;8.05;;
47796;SDS011;33558;50.922;14.068;2022-10-16T17:33:03;15.68;;;8.60;;
47796;SDS011;33558;50.922;14.068;2022-10-16T17:35:35;14.52;;;10.02;;
47796;SDS011;33558;50.922;14.068;2022-10-16T17:38:02;15.23;;;9.50;;
47796;SDS011;33558;50.922;14.068;2022-10-16T17:40:30;16.98;;;11.18;;
47796;SDS011;33558;50.922;14.068;2022-10-16T17:42:57;14.02;;;10.40;;
47796;SDS011;33558;50.922;14.068;2022-10-16T17:45:24;19.33;;;10.60;;
47796;SDS011;33558;50.922;14.068;2022-10-16T17:47:51;16.40;;;11.90;;
47796;SDS011;33558;50.922;14.068;2022-10-16T17:50:17;18.45;;;12.60;;
47796;SDS011;33558;50.922;14.068;2022-10-16T17:52:44;16.23;;;11.95;;
47796;SDS011;33558;50.922;14.068;2022-10-16T17:55:11;16.08;;;11.98;;
47796;SDS011;33558;50.922;14.068;2022-10-16T17:57:39;18.85;;;13.80;;
47796;SDS011;33558;50.922;14.068;2022-10-16T18:00:06;27.30;;;14.30;;
47796;SDS011;33558;50.922;14.068;2022-10-16T18:02:35;20.70;;;14.23;;
47796;SDS011;33558;50.922;14.068;2022-10-16T18:05:02;17.42;;;14.40;;
47796;SDS011;33558;50.922;14.068;2022-10-16T18:07:30;19.40;;;14.05;;
47796;SDS011;33558;50.922;14.068;2022-10-16T18:09:57;18.25;;;13.80;;
47796;SDS011;33558;50.922;14.068;2022-10-16T18:12:24;24.63;;;14.63;;
47796;SDS011;33558;50.922;14.068;2022-10-16T18:14:52;17.30;;;13.40;;
47796;SDS011;33558;50.922;14.068;2022-10-16T18:17:22;19.20;;;14.65;;
47796;SDS011;33558;50.922;14.068;2022-10-16T18:19:49;28.42;;;19.73;;
47796;SDS011;33558;50.922;14.068;2022-10-16T18:22:16;27.45;;;20.65;;
47796;SDS011;33558;50.922;14.068;2022-10-16T18:24:42;25.65;;;17.75;;
47796;SDS011;33558;50.922;14.068;2022-10-16T18:27:09;22.15;;;16.30;;
47796;SDS011;33558;50.922;14.068;2022-10-16T18:29:36;18.13;;;14.00;;
47796;SDS011;33558;50.922;14.068;2022-10-16T18:32:04;16.63;;;12.98;;
47796;SDS011;33558;50.922;14.068;2022-10-16T18:34:32;22.33;;;15.57;;
47796;SDS011;33558;50.922;14.068;2022-10-16T18:37:01;22.70;;;15.68;;
47796;SDS011;33558;50.922;14.068;2022-10-16T18:39:28;20.05;;;15.13;;
47796;SDS011;33558;50.922;14.068;2022-10-16T18:41:55;18.35;;;14.50;;
47796;SDS011;33558;50.922;14.068;2022-10-16T18:44:24;20.30;;;14.02;;
47796;SDS011;33558;50.922;14.068;2022-10-16T18:46:51;21.95;;;14.60;;
47796;SDS011;33558;50.922;14.068;2022-10-16T18:49:22;18.98;;;14.27;;
47796;SDS011;33558;50.922;14.068;2022-10-16T18:51:50;19.23;;;12.23;;
47796;SDS011;33558;50.922;14.068;2022-10-16T18:54:21;18.17;;;12.05;;
47796;SDS011;33558;50.922;14.068;2022-10-16T18:56:49;13.02;;;10.60;;
47796;SDS011;33558;50.922;14.068;2022-10-16T18:59:16;14.77;;;11.55;;
47796;SDS011;33558;50.922;14.068;2022-10-16T19:01:43;13.52;;;11.45;;
47796;SDS011;33558;50.922;14.068;2022-10-16T19:04:15;14.77;;;11.27;;
47796;SDS011;33558;50.922;14.068;2022-10-16T19:06:45;14.35;;;11.25;;
47796;SDS011;33558;50.922;14.068;2022-10-16T19:09:14;14.82;;;13.30;;
47796;SDS011;33558;50.922;14.068;2022-10-16T19:11:42;14.25;;;11.88;;
47796;SDS011;33558;50.922;14.068;2022-10-16T19:14:09;18.75;;;13.60;;
47796;SDS011;33558;50.922;14.068;2022-10-16T19:16:37;16.17;;;12.85;;
47796;SDS011;33558;50.922;14.068;2022-10-16T19:19:04;16.67;;;10.13;;
47796;SDS011;33558;50.922;14.068;2022-10-16T19:21:33;12.38;;;9.20;;
47796;SDS011;33558;50.922;14.068;2022-10-16T19:24:02;11.02;;;9.02;;
47796;SDS011;33558;50.922;14.068;2022-10-16T19:26:30;11.15;;;8.77;;
47796;SDS011;33558;50.922;14.068;2022-10-16T19:28:59;12.77;;;8.18;;
47796;SDS011;33558;50.922;14.068;2022-10-16T19:31:27;9.45;;;8.02;;
47796;SDS011;33558;50.922;14.068;2022-10-16T19:33:56;17.90;;;7.93;;
47796;SDS011;33558;50.922;14.068;2022-10-16T19:36:24;13.63;;;7.32;;